Latest Weather Observations for Evans Head

IDN60801

Issued at 8:12 pm EDT Wednesday 29 January 2020 (issued every 10 minutes, with the page automatically refreshed every 10 minutes)

About weather observations | Map of weather stations | Latest weather observations for NSW | Other Formats
Station Details ID: 058212 Name: EVANS HEAD RAAF BOMBING RANGE AWS Lat: -29.18 Lon: 153.40 Height: 62.5 m
Data from the previous 72 hours. | See also: Recent months at Evans Head
Date/Time
EDT
Temp
°C
App
Temp
°C
Dew
Point
°C
Rel
Hum
%
Delta-T
°C
Wind Press
QNH
hPa
Press
MSL
hPa
Rain since
9am
mm
Dir  Spd
km/h
Gust
km/h
Spd
kts
Gust
kts
29/08:00pm 23.5 26.0 21.8 90 1.1 S 11 13 6 7 1014.5 1014.1 0.0
29/07:30pm 24.2 26.8 21.9 87 1.5 S 11 13 6 7 1014.0 1013.6 0.0
29/07:00pm 24.8 27.8 21.9 84 1.9 SSE 9 13 5 7 1013.4 1013.0 0.0
29/06:30pm 25.7 28.2 21.8 79 2.6 S 11 13 6 7 1013.4 1013.0 0.0
29/06:00pm 27.3 30.3 22.7 76 3.1 SSE 11 15 6 8 1012.9 1012.6 0.0
29/05:30pm 27.1 28.8 22.3 75 3.2 SE 17 20 9 11 1012.7 1012.4 0.0
29/05:00pm 27.6 29.4 21.9 71 3.8 SE 15 20 8 11 1012.7 1012.4 0.0
29/04:30pm 28.1 30.0 22.1 70 4.0 SSE 15 19 8 10 1012.7 1012.4 0.0
29/04:00pm 28.2 30.0 21.2 65 4.7 SE 13 19 7 10 1012.9 1012.6 0.0
29/03:30pm 28.2 30.0 21.2 65 4.7 SE 13 17 7 9 1012.9 1012.6 0.0
29/03:00pm 28.6 30.6 21.6 66 4.7 SSE 13 19 7 10 1013.0 1012.7 0.0
29/02:30pm 28.1 28.5 20.6 63 5.0 SSE 19 24 10 13 1013.1 1012.8 0.0
29/02:00pm 28.4 29.7 20.9 64 5.0 SSE 15 20 8 11 1013.5 1013.1 0.0
29/01:30pm 29.2 31.1 21.4 63 5.2 SSE 13 17 7 9 1013.7 1013.3 0.0
29/01:00pm 29.6 30.6 21.0 60 5.7 SSE 17 22 9 12 1013.9 1013.5 0.0
29/12:30pm 29.5 29.5 20.9 60 5.7 SSE 22 30 12 16 1014.0 1013.6 0.0
29/12:00pm 29.5 30.6 21.2 61 5.6 SE 17 20 9 11 1014.2 1013.8 0.0
29/11:30am 29.0 29.2 20.2 59 5.8 ESE 19 24 10 13 1014.2 1013.8 0.0
29/11:00am 29.1 30.4 20.8 61 5.5 E 15 19 8 10 1013.8 1013.4 0.0
29/10:30am 31.4 34.8 21.6 56 6.6 WSW 6 11 3 6 1013.6 1013.2 0.0
29/10:00am 30.6 33.0 20.8 56 6.5 NNW 9 17 5 9 1013.4 1013.0 0.0
29/09:30am 30.1 32.4 22.0 62 5.5 NNW 13 20 7 11 1013.4 1013.0 0.0
29/09:00am 28.2 30.2 21.5 67 4.5 NNW 13 20 7 11 1013.4 1013.0 0.0
29/08:30am 26.4 28.2 21.2 73 3.5 NNW 13 20 7 11 1013.6 1013.2 0.0
29/08:00am 24.7 28.0 21.8 84 1.9 N 7 11 4 6 1013.5 1013.1 0.0
29/07:30am 22.9 26.0 21.0 89 1.2 N 6 7 3 4 1013.5 1013.1 0.0
29/07:00am 21.9 24.3 20.9 94 0.7 N 9 15 5 8 1013.0 1012.7 0.0
29/06:30am 21.1 23.0 19.7 92 0.9 NNW 9 11 5 6 1012.7 1012.4 0.0
29/06:00am 21.0 23.3 19.5 91 1.0 N 6 9 3 5 1012.6 1012.3 0.0
29/05:30am 21.0 22.9 19.7 92 0.8 NNW 9 9 5 5 1012.2 1011.9 0.0
29/05:00am 21.5 25.4 20.3 93 0.8 CALM 0 7 0 4 1012.1 1011.8 0.0
29/04:30am 21.3 23.6 19.9 92 0.9 NNW 7 9 4 5 1012.0 1011.7 0.0
29/04:00am 21.4 23.4 20.0 92 0.9 N 9 13 5 7 1011.9 1011.6 0.0
29/03:30am 21.6 23.7 20.1 91 1.0 NNW 9 11 5 6 1012.1 1011.8 0.0
29/03:00am 21.9 23.8 20.5 92 0.9 N 11 13 6 7 1012.2 1011.9 0.0
29/02:30am 22.3 24.0 20.9 92 0.9 N 13 20 7 11 1012.4 1012.1 0.0
29/02:00am 22.4 24.8 20.9 91 1.0 N 9 13 5 7 1012.8 1012.5 0.0
29/01:30am 22.5 25.0 21.0 91 1.0 N 9 13 5 7 1012.9 1012.6 0.0
29/01:00am 22.6 24.9 20.7 89 1.2 N 9 11 5 6 1013.0 1012.7 0.0
29/12:30am 22.8 25.0 21.1 90 1.1 N 11 15 6 8 1013.1 1012.8 0.0
29/12:00am 22.8 25.1 20.7 88 1.4 N 9 15 5 8 1013.4 1013.0 0.0
 
Date/Time
EDT
Temp
°C
App
Temp
°C
Dew
Point
°C
Rel
Hum
%
Delta-T
°C
Wind Press
QNH
hPa
Press
MSL
hPa
Rain since
9am
mm
Dir  Spd
km/h
Gust
km/h
Spd
kts
Gust
kts
28/11:30pm 23.0 25.1 20.9 88 1.4 N 11 19 6 10 1013.4 1013.0 0.0
28/11:00pm 23.3 24.9 21.4 89 1.3 N 15 20 8 11 1013.4 1013.0 0.0
28/10:30pm 23.2 24.3 21.3 89 1.3 N 17 26 9 14 1013.0 1012.7 0.0
28/10:00pm 23.2 23.6 20.9 87 1.5 N 20 28 11 15 1012.9 1012.6 0.0
28/09:30pm 23.5 23.8 20.8 85 1.8 N 20 30 11 16 1012.8 1012.5 0.0
28/09:00pm 23.8 23.7 20.7 83 2.0 N 22 35 12 19 1012.8 1012.5 0.0
28/08:30pm 24.0 24.3 20.7 82 2.2 N 20 30 11 16 1012.5 1012.2 0.0
28/08:00pm 24.5 24.1 21.0 81 2.3 N 24 35 13 19 1012.2 1011.9 0.0
28/07:30pm 24.9 24.2 21.0 79 2.6 NNE 26 37 14 20 1011.9 1011.6 0.0
28/07:00pm 25.6 25.3 21.1 76 3.0 NNE 24 35 13 19 1011.6 1011.3 0.0
28/06:30pm 26.4 25.2 20.9 72 3.6 NNE 28 41 15 22 1011.2 1010.9 0.0
28/06:00pm 26.9 25.6 20.7 69 4.1 NNE 28 46 15 25 1011.1 1010.8 0.0
28/05:36pm 27.7 26.2 20.3 64 4.9 NNE 28 50 15 27 1011.2 1010.9 0.0
28/05:30pm 27.8 26.9 20.6 65 4.8 NNE 26 39 14 21 1011.3 1011.0 0.0
28/05:00pm 28.1 26.9 20.9 65 4.8 NNE 28 43 15 23 1011.5 1011.2 0.0
28/04:30pm 28.8 27.8 21.3 64 5.0 NNE 28 44 15 24 1011.6 1011.3 0.0
28/04:00pm 30.0 30.0 21.7 61 5.6 NNE 24 44 13 24 1012.0 1011.7 0.0
28/03:30pm 30.1 30.6 21.2 59 6.0 NNE 20 37 11 20 1012.3 1012.0 0.0
28/03:00pm 29.7 29.7 21.6 61 5.5 NNE 24 39 13 21 1012.7 1012.4 0.0
28/02:30pm 29.8 29.6 21.2 60 5.8 NE 24 41 13 22 1013.0 1012.7 0.0
28/02:00pm 29.6 29.1 20.7 58 5.9 NNE 24 37 13 20 1013.4 1013.0 0.0
28/01:30pm 30.5 31.0 21.9 60 5.8 NNE 22 35 12 19 1013.8 1013.4 0.0
28/01:00pm 30.0 30.2 21.4 60 5.8 ENE 22 30 12 16 1014.2 1013.8 0.0
28/12:30pm 31.1 32.1 22.1 58 6.1 ENE 20 30 11 16 1014.3 1013.9 0.0
28/12:00pm 29.1 30.6 19.7 57 6.2 NNE 11 26 6 14 1014.4 1014.0 0.0
28/11:30am 30.2 32.2 19.9 54 6.8 NE 9 15 5 8 1014.8 1014.4 0.0
28/11:00am 29.7 31.2 19.7 55 6.6 N 11 22 6 12 1015.1 1014.7 0.0
28/10:30am 30.2 32.0 21.8 60 5.7 NNW 15 20 8 11 1015.2 1014.8 0.0
28/10:00am 28.4 29.2 20.7 63 5.1 NNW 17 26 9 14 1015.4 1015.0 0.0
28/09:30am 28.3 29.2 20.8 63 5.0 NNW 17 24 9 13 1015.5 1015.1 0.0
28/09:00am 27.3 29.8 21.1 69 4.1 N 9 15 5 8 1015.4 1015.0 0.0
28/08:30am 25.5 28.6 21.0 76 3.0 NW 6 9 3 5 1015.3 1014.9 0.0
28/08:00am 23.1 25.3 20.4 85 1.8 NNW 9 13 5 7 1015.1 1014.7 0.0
28/07:30am 22.8 26.0 20.5 87 1.5 NW 4 7 2 4 1014.7 1014.3 0.0
28/07:00am 21.4 23.6 20.4 94 0.6 NW 9 11 5 6 1014.2 1013.8 0.0
28/06:30am 20.1 21.4 18.4 90 1.1 NNW 9 9 5 5 1013.9 1013.5 0.0
28/06:00am 20.2 21.6 18.7 91 0.9 NNW 9 13 5 7 1013.7 1013.3 0.0
28/05:30am 20.3 21.7 18.6 90 1.1 NNW 9 11 5 6 1013.6 1013.2 0.0
28/05:00am 20.4 21.4 18.7 90 1.1 NNW 11 13 6 7 1013.5 1013.1 0.0
28/04:30am 20.5 21.9 18.6 89 1.2 NNW 9 11 5 6 1013.7 1013.3 0.0
28/04:00am 20.8 21.8 18.7 88 1.3 NNW 11 13 6 7 1013.9 1013.5 0.0
28/03:30am 21.0 22.5 18.8 87 1.4 NNW 9 13 5 7 1014.0 1013.6 0.0
28/03:00am 21.4 22.7 19.3 88 1.3 N 11 15 6 8 1014.2 1013.8 0.0
28/02:30am 21.8 23.0 19.9 89 1.2 N 13 17 7 9 1014.4 1014.0 0.0
28/02:00am 21.6 22.6 19.5 88 1.3 N 13 17 7 9 1014.5 1014.1 0.0
28/01:30am 21.8 22.5 19.7 88 1.3 N 15 19 8 10 1014.7 1014.3 0.0
28/01:00am 21.8 22.9 19.7 88 1.3 N 13 17 7 9 1015.0 1014.6 0.0
28/12:30am 21.8 22.8 19.5 87 1.5 N 13 15 7 8 1015.2 1014.8 0.0
28/12:00am 22.1 22.8 19.6 86 1.6 N 15 20 8 11 1015.3 1014.9 0.0
 
Date/Time
EDT
Temp
°C
App
Temp
°C
Dew
Point
°C
Rel
Hum
%
Delta-T
°C
Wind Press
QNH
hPa
Press
MSL
hPa
Rain since
9am
mm
Dir  Spd
km/h
Gust
km/h
Spd
kts
Gust
kts
27/11:30pm 22.4 22.8 19.9 86 1.6 N 17 24 9 13 1015.2 1014.8 0.0
27/11:00pm 22.3 23.0 19.7 85 1.7 N 15 19 8 10 1015.3 1014.9 0.0
27/10:30pm 22.7 23.4 19.7 83 1.9 N 15 22 8 12 1015.2 1014.8 0.0
27/10:00pm 22.9 23.3 19.9 83 1.9 N 17 24 9 13 1015.2 1014.8 0.0
27/09:30pm 23.1 23.5 19.9 82 2.1 N 17 24 9 13 1015.0 1014.6 0.0
27/09:00pm 23.4 23.5 20.0 81 2.2 N 19 24 10 13 1014.4 1014.0 0.0
27/08:30pm 23.5 24.3 19.8 80 2.4 N 15 24 8 13 1014.1 1013.7 0.0
27/08:00pm 23.9 23.8 19.6 77 2.8 N 19 24 10 13 1013.6 1013.2 0.0
27/07:30pm 24.2 24.0 19.7 76 2.9 NNE 20 30 11 16 1013.0 1012.7 0.0
27/07:00pm 24.7 24.6 19.5 73 3.3 N 19 28 10 15 1012.8 1012.5 0.0
27/06:30pm 25.7 25.4 19.6 69 3.9 NNE 20 35 11 19 1012.6 1012.3 0.0
27/06:00pm 26.2 25.8 19.3 65 4.5 NNE 20 32 11 17 1012.7 1012.4 0.0
27/05:30pm 26.7 25.5 19.3 64 4.8 NNE 24 37 13 20 1012.5 1012.2 0.0
27/05:00pm 27.2 25.7 19.5 62 5.0 NNE 26 39 14 21 1012.5 1012.2 0.0
27/04:30pm 28.6 28.5 19.5 58 5.9 NNE 19 33 10 18 1012.7 1012.4 0.0
27/04:00pm 30.2 31.2 21.0 58 6.2 NNE 17 28 9 15 1012.9 1012.6 0.0
27/03:30pm 28.4 27.5 19.1 57 6.0 NE 22 35 12 19 1013.3 1012.9 0.0
27/03:00pm 29.5 29.5 20.1 57 6.2 NNE 20 37 11 20 1013.3 1012.9 0.0
27/02:30pm 29.4 28.7 20.3 58 6.0 NE 24 41 13 22 1013.5 1013.1 0.0
27/02:00pm 30.7 30.7 19.7 52 7.2 NE 19 30 10 16 1013.8 1013.4 0.0
27/01:30pm 31.2 31.8 20.2 52 7.3 NE 17 28 9 15 1014.1 1013.7 0.0
27/01:00pm 30.2 30.6 20.7 56 6.3 NE 19 28 10 15 1014.3 1013.9 0.0
27/12:30pm 30.4 31.4 20.3 54 6.7 NE 15 30 8 16 1014.6 1014.2 0.0
27/12:00pm 28.1 27.9 19.3 58 5.7 NNE 19 28 10 15 1014.8 1014.4 0.0
27/11:30am 30.8 31.5 20.4 54 6.9 NNE 17 30 9 16 1014.9 1014.5 0.0
27/11:00am 29.4 29.1 19.1 54 6.7 NE 19 32 10 17 1014.9 1014.5 0.0
27/10:30am 28.7 28.8 19.9 59 5.8 NNE 19 28 10 15 1014.8 1014.4 0.0
27/10:00am 28.7 28.6 19.9 59 5.8 NNE 20 28 11 15 1014.7 1014.3 0.0
27/09:30am 28.1 27.8 19.6 60 5.5 NNE 20 28 11 15 1014.5 1014.1 0.0
27/09:00am 27.4 28.4 20.2 65 4.7 NNE 15 24 8 13 1014.6 1014.2 0.0
27/08:30am 26.6 27.5 20.9 71 3.8 N 17 24 9 13 1014.6 1014.2 0.0
27/08:00am 25.3 26.9 20.8 76 3.0 N 13 20 7 11 1014.7 1014.3 0.0
27/07:30am 23.7 25.1 20.4 82 2.1 N 13 17 7 9 1014.6 1014.2 0.0
27/07:00am 22.3 23.6 20.2 88 1.4 N 13 19 7 10 1014.0 1013.6 0.0
27/06:30am 21.8 23.0 19.9 89 1.2 N 13 20 7 11 1013.8 1013.4 0.0
27/06:00am 21.6 23.0 19.5 88 1.3 N 11 15 6 8 1013.6 1013.2 0.0
27/05:30am 22.0 23.6 19.9 88 1.3 N 11 15 6 8 1013.6 1013.2 0.0
27/05:00am 22.2 24.0 20.3 89 1.2 N 11 15 6 8 1013.6 1013.2 0.0
27/04:30am 22.1 23.8 20.2 89 1.2 N 11 17 6 9 1013.5 1013.1 0.0
27/04:00am 22.1 23.7 20.0 88 1.4 N 11 15 6 8 1013.3 1012.9 0.0
27/03:30am 22.3 23.3 20.2 88 1.4 N 15 20 8 11 1013.0 1012.7 0.0
27/03:00am 22.3 23.3 20.2 88 1.4 N 15 20 8 11 1013.3 1012.9 0.0
27/02:30am 22.4 23.8 20.3 88 1.4 N 13 17 7 9 1013.6 1013.2 0.0
27/02:00am 22.5 23.5 20.2 87 1.5 N 15 22 8 12 1013.7 1013.3 0.0
27/01:30am 22.4 23.8 20.3 88 1.4 N 13 20 7 11 1014.0 1013.6 0.0
27/01:00am 22.2 23.1 20.1 88 1.4 N 15 19 8 10 1014.3 1013.9 0.0
27/12:30am 22.3 23.5 20.0 87 1.5 N 13 17 7 9 1014.8 1014.4 0.0
27/12:00am 22.1 22.9 19.8 87 1.5 N 15 19 8 10 1014.9 1014.5 0.0
 
Date/Time
EDT
Temp
°C
App
Temp
°C
Dew
Point
°C
Rel
Hum
%
Delta-T
°C
Wind Press
QNH
hPa
Press
MSL
hPa
Rain since
9am
mm
Dir  Spd
km/h
Gust
km/h
Spd
kts
Gust
kts
26/11:30pm 22.2 22.9 19.7 86 1.6 N 15 19 8 10 1014.9 1014.5 0.0
26/11:00pm 22.5 23.3 19.9 85 1.7 N 15 20 8 11 1015.0 1014.6 0.0
26/10:30pm 22.5 23.2 19.7 84 1.8 N 15 19 8 10 1015.1 1014.7 0.0
26/10:00pm 22.8 22.7 19.6 82 2.1 N 19 24 10 13 1014.8 1014.4 0.0
26/09:30pm 23.0 23.0 19.8 82 2.1 N 19 26 10 14 1014.4 1014.0 0.0
26/09:00pm 23.2 23.2 19.8 81 2.2 N 19 26 10 14 1013.9 1013.5 0.0
26/08:30pm 23.6 23.1 19.9 80 2.4 N 22 32 12 17 1013.4 1013.0 0.0

Other formats

Comma delimited format used in spreadsheet applications
http://www.bom.gov.au/fwo/IDN60801/IDN60801.94598.axf

JavaScript Object Notation format (JSON) in row-major order
http://www.bom.gov.au/fwo/IDN60801/IDN60801.94598.json

Data quality

Most of these data are generated automatically and are frequently updated. Quality checks on data are not normally performed. It is possible for incorrect values to appear. Refer to information at About Latest Weather Observations and please check the disclaimer before using these data.